createdAt,value
2022-10-31T00:01:28.543Z,13.90
2022-10-31T00:03:55.787Z,13.90
2022-10-31T00:06:23.321Z,13.90
2022-10-31T00:08:59.601Z,13.90
2022-10-31T00:11:26.698Z,13.90
2022-10-31T00:13:53.656Z,13.80
2022-10-31T00:16:25.399Z,13.90
2022-10-31T00:18:54.085Z,13.90
2022-10-31T00:21:21.718Z,13.90
2022-10-31T00:23:49.306Z,13.90
2022-10-31T00:26:16.537Z,13.90
2022-10-31T00:28:43.407Z,13.90
2022-10-31T00:31:12.113Z,13.90
2022-10-31T00:33:40.031Z,13.90
2022-10-31T00:36:08.233Z,13.90
2022-10-31T00:38:35.070Z,13.90
2022-10-31T00:41:01.892Z,13.90
2022-10-31T00:43:28.666Z,13.90
2022-10-31T00:45:55.441Z,13.90
2022-10-31T00:48:25.454Z,13.90
2022-10-31T00:50:53.941Z,13.90
2022-10-31T00:53:21.131Z,13.90
2022-10-31T00:55:48.375Z,13.80
2022-10-31T01:00:56.474Z,13.80
2022-10-31T01:03:26.020Z,13.70
2022-10-31T01:06:13.474Z,13.70
2022-10-31T01:08:41.226Z,13.70
2022-10-31T01:11:17.069Z,13.70
2022-10-31T01:13:44.715Z,13.70
2022-10-31T01:16:14.139Z,13.60
2022-10-31T01:18:41.020Z,13.60
2022-10-31T01:21:11.858Z,13.60
2022-10-31T01:23:38.878Z,13.60
2022-10-31T01:26:11.516Z,13.60
2022-10-31T01:28:46.474Z,13.60
2022-10-31T01:31:13.810Z,13.50
2022-10-31T01:33:40.894Z,13.40
2022-10-31T01:36:23.703Z,13.40
2022-10-31T01:38:56.350Z,13.30
2022-10-31T01:41:27.258Z,13.20
2022-10-31T01:43:58.845Z,13.20
2022-10-31T01:46:40.405Z,13.10
2022-10-31T01:49:17.604Z,13.00
2022-10-31T01:51:57.923Z,13.00
2022-10-31T01:54:29.417Z,12.90
2022-10-31T01:56:58.615Z,12.90
2022-10-31T01:59:28.637Z,12.80
2022-10-31T02:01:55.706Z,12.80
2022-10-31T02:04:25.656Z,12.70
2022-10-31T02:07:04.409Z,12.70
2022-10-31T02:09:34.278Z,12.60
2022-10-31T02:12:03.343Z,12.60
2022-10-31T02:14:32.167Z,12.50
2022-10-31T02:16:59.142Z,12.50
2022-10-31T02:19:41.784Z,12.50
2022-10-31T02:22:26.675Z,12.50
2022-10-31T02:25:16.307Z,12.40
2022-10-31T02:28:19.803Z,12.40
2022-10-31T02:30:46.593Z,12.40
2022-10-31T02:33:45.758Z,12.30
2022-10-31T02:36:21.749Z,12.30
2022-10-31T02:38:52.524Z,12.20
2022-10-31T02:41:40.563Z,12.20
2022-10-31T02:44:16.398Z,12.10
2022-10-31T02:47:16.307Z,12.10
2022-10-31T02:49:46.816Z,12.00
2022-10-31T02:52:26.347Z,12.00
2022-10-31T02:54:53.525Z,12.00
2022-10-31T02:57:28.111Z,11.90
2022-10-31T03:00:02.201Z,11.90
2022-10-31T03:02:38.925Z,11.90
2022-10-31T03:05:09.250Z,11.90
2022-10-31T03:07:41.787Z,11.90
2022-10-31T03:10:23.541Z,11.90
2022-10-31T03:13:02.675Z,11.90
2022-10-31T03:15:34.418Z,11.90
2022-10-31T03:18:10.357Z,11.90
2022-10-31T03:21:17.969Z,11.90
2022-10-31T03:23:47.680Z,11.90
2022-10-31T03:26:22.076Z,11.90
2022-10-31T03:28:59.608Z,11.90
2022-10-31T03:31:33.012Z,11.80
2022-10-31T03:34:02.453Z,11.80
2022-10-31T03:36:34.073Z,11.80
2022-10-31T03:39:05.118Z,11.80
2022-10-31T03:41:35.357Z,11.80
2022-10-31T03:44:10.888Z,11.80
2022-10-31T03:46:40.275Z,11.80
2022-10-31T03:49:07.213Z,11.80
2022-10-31T03:51:41.265Z,11.80
2022-10-31T03:54:24.843Z,11.80
2022-10-31T03:57:23.381Z,11.80
2022-10-31T03:59:58.062Z,11.80
2022-10-31T04:02:30.719Z,11.80
2022-10-31T04:04:58.284Z,11.80
2022-10-31T04:07:30.269Z,11.80
2022-10-31T04:09:58.694Z,11.70
2022-10-31T04:12:27.444Z,11.70
2022-10-31T04:15:05.894Z,11.70
2022-10-31T04:17:39.956Z,11.70
2022-10-31T04:20:07.760Z,11.70
2022-10-31T04:22:34.681Z,11.70
2022-10-31T04:25:01.520Z,11.70
2022-10-31T04:27:28.561Z,11.70
2022-10-31T04:29:56.492Z,11.70
2022-10-31T04:32:23.348Z,11.70
2022-10-31T04:34:52.547Z,11.70
2022-10-31T04:37:19.786Z,11.70
2022-10-31T04:39:48.417Z,11.70
2022-10-31T04:42:33.953Z,11.70
2022-10-31T04:45:04.119Z,11.70
2022-10-31T04:47:34.347Z,11.60
2022-10-31T04:50:02.963Z,11.60
2022-10-31T04:52:29.844Z,11.60
2022-10-31T04:54:57.388Z,11.60
2022-10-31T04:57:51.687Z,11.60
2022-10-31T05:00:21.856Z,11.60
2022-10-31T05:02:55.531Z,11.50
2022-10-31T05:05:32.151Z,11.50
2022-10-31T05:08:01.544Z,11.50
2022-10-31T05:10:31.897Z,11.50
2022-10-31T05:13:03.900Z,11.50
2022-10-31T05:15:50.616Z,11.50
2022-10-31T05:18:43.756Z,11.40
2022-10-31T05:21:28.624Z,11.40
2022-10-31T05:24:00.024Z,11.30
2022-10-31T05:26:28.016Z,11.30
2022-10-31T05:28:55.780Z,11.20
2022-10-31T05:31:23.461Z,11.20
2022-10-31T05:33:52.218Z,11.10
2022-10-31T05:36:37.576Z,11.10
2022-10-31T05:39:11.447Z,11.10
2022-10-31T05:41:43.644Z,11.10
2022-10-31T05:44:20.753Z,11.00
2022-10-31T05:47:10.759Z,11.00
2022-10-31T05:49:55.764Z,10.90
2022-10-31T05:52:41.198Z,10.90
2022-10-31T05:55:18.610Z,10.90
2022-10-31T05:58:02.416Z,10.80
2022-10-31T06:00:30.569Z,10.80
2022-10-31T06:05:49.214Z,10.70
2022-10-31T06:08:19.426Z,10.70
2022-10-31T06:10:46.394Z,10.70
2022-10-31T06:13:17.187Z,10.70
2022-10-31T06:15:47.231Z,10.70
2022-10-31T06:18:14.334Z,10.70
2022-10-31T06:20:47.609Z,10.60
2022-10-31T06:23:14.418Z,10.60
2022-10-31T06:25:43.822Z,10.70
2022-10-31T06:28:12.131Z,10.70
2022-10-31T06:30:51.635Z,10.80
2022-10-31T06:33:19.057Z,10.90
2022-10-31T06:35:55.781Z,10.90
2022-10-31T06:38:22.784Z,11.00
2022-10-31T06:40:49.635Z,11.00
2022-10-31T06:43:36.693Z,11.00
2022-10-31T06:46:19.675Z,11.10
2022-10-31T06:49:06.387Z,11.10
2022-10-31T06:51:43.116Z,11.20
2022-10-31T06:54:10.032Z,11.20
2022-10-31T06:56:39.804Z,11.20
2022-10-31T06:59:06.909Z,11.20
2022-10-31T07:02:03.743Z,11.30
2022-10-31T07:04:30.670Z,11.30
2022-10-31T07:06:57.638Z,11.30
2022-10-31T07:09:24.735Z,11.30
2022-10-31T07:11:53.922Z,11.40
2022-10-31T07:14:20.819Z,11.40
2022-10-31T07:16:52.005Z,11.40
2022-10-31T07:19:24.523Z,11.50
2022-10-31T07:21:51.293Z,11.50
2022-10-31T07:24:18.382Z,11.50
2022-10-31T07:27:05.650Z,11.60
2022-10-31T07:29:32.399Z,11.60
2022-10-31T07:31:59.440Z,11.70
2022-10-31T07:34:29.588Z,11.70
2022-10-31T07:37:15.627Z,11.80
2022-10-31T07:39:42.433Z,11.90
2022-10-31T07:42:09.528Z,11.90
2022-10-31T07:44:37.687Z,12.00
2022-10-31T07:47:22.873Z,12.10
2022-10-31T07:50:10.022Z,12.20
2022-10-31T07:53:10.912Z,12.30
2022-10-31T07:55:44.082Z,12.40
2022-10-31T07:58:15.415Z,12.50
2022-10-31T08:00:46.057Z,12.60
2022-10-31T08:03:18.811Z,12.70
2022-10-31T08:06:04.464Z,12.90
2022-10-31T08:08:51.470Z,13.00
2022-10-31T08:11:19.287Z,13.20
2022-10-31T08:13:47.621Z,13.30
2022-10-31T08:16:15.430Z,13.50
2022-10-31T08:18:56.677Z,13.60
2022-10-31T08:21:24.230Z,13.80
2022-10-31T08:23:51.351Z,14.00
2022-10-31T08:26:20.938Z,14.10
2022-10-31T08:28:50.771Z,14.30
2022-10-31T08:31:20.320Z,14.40
2022-10-31T08:33:47.062Z,14.50
2022-10-31T08:36:20.769Z,14.50
2022-10-31T08:39:00.616Z,14.50
2022-10-31T08:41:29.318Z,14.50
2022-10-31T08:43:56.287Z,14.50
2022-10-31T08:46:23.029Z,14.50
2022-10-31T08:48:50.261Z,14.50
2022-10-31T08:51:18.102Z,14.60
2022-10-31T08:53:44.956Z,14.70
2022-10-31T08:56:30.785Z,14.80
2022-10-31T08:58:57.789Z,14.90
2022-10-31T09:01:35.017Z,15.00
2022-10-31T09:04:01.885Z,15.10
2022-10-31T09:06:28.718Z,15.20
2022-10-31T09:08:55.535Z,15.30
2022-10-31T09:11:24.732Z,15.80
2022-10-31T09:14:10.179Z,16.50
2022-10-31T09:16:39.904Z,17.10
2022-10-31T09:19:12.578Z,17.50
2022-10-31T09:21:39.307Z,17.80
2022-10-31T09:24:06.570Z,17.90
2022-10-31T09:26:34.644Z,18.00
2022-10-31T09:29:14.777Z,18.00
2022-10-31T09:31:45.116Z,17.90
2022-10-31T09:34:31.673Z,17.90
2022-10-31T09:37:10.828Z,17.90
2022-10-31T09:39:37.883Z,17.80
2022-10-31T09:42:36.137Z,17.80
2022-10-31T09:45:41.859Z,17.70
2022-10-31T09:48:45.810Z,17.70
2022-10-31T09:51:34.420Z,17.60
2022-10-31T09:54:28.071Z,17.50
2022-10-31T09:56:56.843Z,17.40
2022-10-31T09:59:35.815Z,17.40
2022-10-31T10:02:27.406Z,17.40
2022-10-31T10:04:58.144Z,17.40
2022-10-31T10:07:34.037Z,17.40
2022-10-31T10:10:24.336Z,17.40
2022-10-31T10:13:30.354Z,17.30
2022-10-31T10:16:34.208Z,17.30
2022-10-31T10:19:31.338Z,17.30
2022-10-31T10:22:20.238Z,17.30
2022-10-31T10:24:52.995Z,17.30
2022-10-31T10:27:50.814Z,17.30
2022-10-31T10:30:31.633Z,17.30
2022-10-31T10:33:08.452Z,17.30
2022-10-31T10:35:42.488Z,17.40
2022-10-31T10:38:36.866Z,17.50
2022-10-31T10:41:10.947Z,17.60
2022-10-31T10:43:38.798Z,17.70
2022-10-31T10:46:53.028Z,17.90
2022-10-31T10:49:24.949Z,18.20
2022-10-31T10:52:27.420Z,18.50
2022-10-31T10:55:10.680Z,18.50
2022-10-31T10:58:03.704Z,18.40
2022-10-31T11:00:47.316Z,18.30
2022-10-31T11:03:18.811Z,18.40
2022-10-31T11:05:59.249Z,18.50
2022-10-31T11:08:31.147Z,18.60
2022-10-31T11:11:19.123Z,18.70
2022-10-31T11:13:53.196Z,18.80
2022-10-31T11:16:30.714Z,18.90
2022-10-31T11:19:19.863Z,19.00
2022-10-31T11:21:53.588Z,19.10
2022-10-31T11:24:28.699Z,19.10
2022-10-31T11:27:20.744Z,19.10
2022-10-31T11:29:47.742Z,19.10
2022-10-31T11:32:30.838Z,19.20
2022-10-31T11:35:01.508Z,19.30
2022-10-31T11:37:31.617Z,19.30
2022-10-31T11:40:01.208Z,19.30
2022-10-31T11:42:40.131Z,19.20
2022-10-31T11:45:18.615Z,19.10
2022-10-31T11:47:55.242Z,19.00
2022-10-31T11:50:39.702Z,18.80
2022-10-31T11:53:19.620Z,18.70
2022-10-31T11:55:47.657Z,18.60
2022-10-31T11:58:23.322Z,18.60
2022-10-31T12:00:52.899Z,18.60
2022-10-31T12:03:52.650Z,18.50
2022-10-31T12:06:28.595Z,18.50
2022-10-31T12:08:56.016Z,18.40
2022-10-31T12:12:07.293Z,18.30
2022-10-31T12:14:59.565Z,18.20
2022-10-31T12:17:30.301Z,18.20
2022-10-31T12:20:18.968Z,18.10
2022-10-31T12:23:10.673Z,18.10
2022-10-31T12:25:45.724Z,18.10
2022-10-31T12:28:31.360Z,18.10
2022-10-31T12:31:04.249Z,18.20
2022-10-31T12:33:34.014Z,18.30
2022-10-31T12:36:21.670Z,18.40
2022-10-31T12:39:01.041Z,18.60
2022-10-31T12:41:57.378Z,18.70
2022-10-31T12:44:53.750Z,19.00
2022-10-31T12:47:42.430Z,19.30
2022-10-31T12:50:37.144Z,19.60
2022-10-31T12:53:24.322Z,19.80
2022-10-31T12:56:30.701Z,19.90
2022-10-31T12:59:07.880Z,20.00
2022-10-31T13:01:48.517Z,20.00
2022-10-31T13:04:56.980Z,20.00
2022-10-31T13:07:31.038Z,20.00
2022-10-31T13:10:13.719Z,20.00
2022-10-31T13:12:42.135Z,19.90
2022-10-31T13:15:22.541Z,19.80
2022-10-31T13:17:56.609Z,19.60
2022-10-31T13:20:31.390Z,19.50
2022-10-31T13:23:49.060Z,19.30
2022-10-31T13:26:22.685Z,19.20
2022-10-31T13:29:07.709Z,19.00
2022-10-31T13:31:34.713Z,19.00
2022-10-31T13:34:21.213Z,18.90
2022-10-31T13:37:15.967Z,18.80
2022-10-31T13:39:52.041Z,18.80
2022-10-31T13:42:44.674Z,18.70
2022-10-31T13:45:17.961Z,18.70
2022-10-31T13:47:55.528Z,18.60
2022-10-31T13:50:25.712Z,18.50
2022-10-31T13:52:52.624Z,18.50
2022-10-31T13:55:40.086Z,18.50
2022-10-31T13:58:31.333Z,18.50
2022-10-31T14:01:11.576Z,18.40
2022-10-31T14:07:10.129Z,18.40
2022-10-31T14:09:39.310Z,18.40
2022-10-31T14:12:43.557Z,18.30
2022-10-31T14:15:13.415Z,18.30
2022-10-31T14:17:47.155Z,18.30
2022-10-31T14:20:17.216Z,18.20
2022-10-31T14:22:44.326Z,18.20
2022-10-31T14:25:34.438Z,18.10
2022-10-31T14:28:04.765Z,18.10
2022-10-31T14:30:32.160Z,18.10
2022-10-31T14:33:19.422Z,18.20
2022-10-31T14:36:19.999Z,18.20
2022-10-31T14:39:04.943Z,18.10
2022-10-31T14:41:53.299Z,18.10
2022-10-31T14:44:46.140Z,18.00
2022-10-31T14:47:46.541Z,18.10
2022-10-31T14:50:35.802Z,18.10
2022-10-31T14:53:04.967Z,18.00
2022-10-31T14:55:32.993Z,18.00
2022-10-31T14:58:03.596Z,18.00
2022-10-31T15:00:32.153Z,18.00
2022-10-31T15:03:17.495Z,17.90
2022-10-31T15:06:03.297Z,17.90
2022-10-31T15:08:35.557Z,17.90
2022-10-31T15:11:26.663Z,17.90
2022-10-31T15:13:55.911Z,17.90
2022-10-31T15:19:07.790Z,17.90
2022-10-31T15:21:44.311Z,17.80
2022-10-31T15:24:16.967Z,17.80
2022-10-31T15:26:48.442Z,17.80
2022-10-31T15:29:18.232Z,17.80
2022-10-31T15:32:24.600Z,17.70
2022-10-31T15:34:52.945Z,17.70
2022-10-31T15:37:22.243Z,17.70
2022-10-31T15:39:50.287Z,17.70
2022-10-31T15:42:20.224Z,17.70
2022-10-31T15:44:52.233Z,17.60
2022-10-31T15:47:22.050Z,17.70
2022-10-31T15:49:54.680Z,17.60
2022-10-31T15:52:30.271Z,17.60
2022-10-31T15:55:04.137Z,17.50
2022-10-31T15:57:31.598Z,17.40
2022-10-31T15:59:58.533Z,17.40
2022-10-31T16:02:27.997Z,17.30
2022-10-31T16:05:02.566Z,17.20
2022-10-31T16:07:30.628Z,17.20
2022-10-31T16:10:03.046Z,17.10
2022-10-31T16:12:45.615Z,17.00
2022-10-31T16:15:16.376Z,16.90
2022-10-31T16:17:46.310Z,16.90
2022-10-31T16:20:32.893Z,16.80
2022-10-31T16:23:00.501Z,16.80
2022-10-31T16:25:34.724Z,16.70
2022-10-31T16:28:24.593Z,16.70
2022-10-31T16:30:57.801Z,16.60
2022-10-31T16:33:31.761Z,16.60
2022-10-31T16:36:15.632Z,16.60
2022-10-31T16:38:46.645Z,16.50
2022-10-31T16:41:13.642Z,16.50
2022-10-31T16:43:40.515Z,16.50
2022-10-31T16:48:40.414Z,16.50
2022-10-31T16:51:09.213Z,16.50
2022-10-31T16:53:36.088Z,16.40
2022-10-31T16:56:04.533Z,16.40
2022-10-31T16:58:35.206Z,16.40
2022-10-31T17:01:04.950Z,16.30
2022-10-31T17:03:31.884Z,16.30
2022-10-31T17:05:58.671Z,16.30
2022-10-31T17:08:26.248Z,16.20
2022-10-31T17:10:56.287Z,16.20
2022-10-31T17:13:26.054Z,16.10
2022-10-31T17:15:56.612Z,16.10
2022-10-31T17:18:27.678Z,16.10
2022-10-31T17:21:00.300Z,16.00
2022-10-31T17:23:28.702Z,16.00
2022-10-31T17:25:56.618Z,15.90
2022-10-31T17:28:23.497Z,15.90
2022-10-31T17:30:50.522Z,15.90
2022-10-31T17:33:17.688Z,15.80
2022-10-31T17:35:44.996Z,15.80
2022-10-31T17:38:12.419Z,15.80
2022-10-31T17:40:42.265Z,15.70
2022-10-31T17:43:10.850Z,15.70
2022-10-31T17:45:40.385Z,15.70
2022-10-31T17:48:07.890Z,15.70
2022-10-31T17:50:34.750Z,15.70
2022-10-31T17:53:01.981Z,15.60
2022-10-31T17:55:32.828Z,15.60
2022-10-31T17:58:05.247Z,15.60
2022-10-31T18:00:32.299Z,15.60
2022-10-31T18:02:59.679Z,15.60
2022-10-31T18:05:26.723Z,15.60
2022-10-31T18:07:53.490Z,15.50
2022-10-31T18:10:20.255Z,15.50
2022-10-31T18:12:48.775Z,15.50
2022-10-31T18:15:16.675Z,15.50
2022-10-31T18:17:43.671Z,15.40
2022-10-31T18:20:11.343Z,15.40
2022-10-31T18:22:38.243Z,15.40
2022-10-31T18:25:05.945Z,15.40
2022-10-31T18:27:32.766Z,15.40
2022-10-31T18:30:00.725Z,15.30
2022-10-31T18:32:28.565Z,15.30
2022-10-31T18:34:56.190Z,15.30
2022-10-31T18:37:23.012Z,15.30
2022-10-31T18:39:50.030Z,15.30
2022-10-31T18:42:16.876Z,15.20
2022-10-31T18:44:43.838Z,15.20
2022-10-31T18:47:10.866Z,15.20
2022-10-31T18:49:37.595Z,15.10
2022-10-31T18:52:04.801Z,15.10
2022-10-31T18:54:31.696Z,15.10
2022-10-31T18:56:58.610Z,15.00
2022-10-31T18:59:25.491Z,15.00
2022-10-31T19:01:52.426Z,15.00
2022-10-31T19:04:19.642Z,15.00
2022-10-31T19:06:46.540Z,15.00
2022-10-31T19:09:13.372Z,14.90
2022-10-31T19:11:40.234Z,14.90
2022-10-31T19:14:08.500Z,14.90
2022-10-31T19:16:35.678Z,14.90
2022-10-31T19:19:02.769Z,14.90
2022-10-31T19:21:31.100Z,14.90
2022-10-31T19:23:59.103Z,14.90
2022-10-31T19:26:27.084Z,14.90
2022-10-31T19:28:55.892Z,14.90
2022-10-31T19:31:23.411Z,14.80
2022-10-31T19:33:50.270Z,14.80
2022-10-31T19:36:19.461Z,14.80
2022-10-31T19:38:49.253Z,14.80
2022-10-31T19:41:27.656Z,14.80
2022-10-31T19:43:55.591Z,14.70
2022-10-31T19:46:40.435Z,14.70
2022-10-31T19:49:20.890Z,14.70
2022-10-31T19:51:47.877Z,14.70
2022-10-31T19:54:14.725Z,14.70
2022-10-31T19:56:41.550Z,14.70
2022-10-31T19:59:08.699Z,14.70
2022-10-31T20:01:35.768Z,14.70
2022-10-31T20:04:02.695Z,14.70
2022-10-31T20:06:36.025Z,14.70
2022-10-31T20:09:06.017Z,14.60
2022-10-31T20:11:32.883Z,14.60
2022-10-31T20:14:00.112Z,14.60
2022-10-31T20:16:27.931Z,14.60
2022-10-31T20:18:55.634Z,14.60
2022-10-31T20:21:25.047Z,14.60
2022-10-31T20:23:59.922Z,14.60
2022-10-31T20:26:28.096Z,14.60
2022-10-31T20:28:59.923Z,14.60
2022-10-31T20:31:30.935Z,14.50
2022-10-31T20:33:57.944Z,14.60
2022-10-31T20:36:25.339Z,14.60
2022-10-31T20:38:53.143Z,14.60
2022-10-31T20:41:22.285Z,14.60
2022-10-31T20:43:49.352Z,14.60
2022-10-31T20:46:19.283Z,14.60
2022-10-31T20:48:46.777Z,14.60
2022-10-31T20:51:17.663Z,14.60
2022-10-31T20:53:45.022Z,14.60
2022-10-31T20:56:17.562Z,14.60
2022-10-31T20:58:47.729Z,14.60
2022-10-31T21:01:20.062Z,14.60
2022-10-31T21:03:48.253Z,14.60
2022-10-31T21:06:17.828Z,14.60
2022-10-31T21:08:45.327Z,14.60
2022-10-31T21:11:17.403Z,14.60
2022-10-31T21:13:46.094Z,14.60
2022-10-31T21:16:15.861Z,14.60
2022-10-31T21:18:44.011Z,14.60
2022-10-31T21:21:27.601Z,14.60
2022-10-31T21:24:07.043Z,14.60
2022-10-31T21:26:38.313Z,14.50
2022-10-31T21:29:06.915Z,14.50
2022-10-31T21:31:36.100Z,14.50
2022-10-31T21:34:03.677Z,14.50
2022-10-31T21:36:30.854Z,14.40
2022-10-31T21:38:58.212Z,14.40
2022-10-31T21:41:26.524Z,14.40
2022-10-31T21:43:54.359Z,14.40
2022-10-31T21:46:22.305Z,14.40
2022-10-31T21:48:49.785Z,14.40
2022-10-31T21:51:19.686Z,14.40
2022-10-31T21:54:05.365Z,14.40
2022-10-31T21:56:33.098Z,14.40
2022-10-31T21:59:00.724Z,14.40
2022-10-31T22:01:29.593Z,14.40
2022-10-31T22:03:57.719Z,14.40
2022-10-31T22:06:29.970Z,14.50
2022-10-31T22:09:00.335Z,14.50
2022-10-31T22:11:30.352Z,14.50
2022-10-31T22:13:59.400Z,14.50
2022-10-31T22:16:27.737Z,14.50
2022-10-31T22:18:56.812Z,14.50
2022-10-31T22:21:25.482Z,14.60
2022-10-31T22:23:53.920Z,14.60
2022-10-31T22:26:20.992Z,14.60
2022-10-31T22:28:56.038Z,14.70
2022-10-31T22:31:24.384Z,14.80
2022-10-31T22:33:51.906Z,14.90
2022-10-31T22:36:21.312Z,14.90
2022-10-31T22:38:48.263Z,15.00
2022-10-31T22:41:23.495Z,15.10
2022-10-31T22:43:50.487Z,15.10
2022-10-31T22:46:19.746Z,15.10
2022-10-31T22:48:49.438Z,15.20
2022-10-31T22:51:23.225Z,15.20
2022-10-31T22:53:51.056Z,15.20
2022-10-31T22:56:20.884Z,15.20
2022-10-31T22:58:48.373Z,15.20
2022-10-31T23:01:20.809Z,15.20
2022-10-31T23:03:48.515Z,15.20
2022-10-31T23:06:20.681Z,15.20
2022-10-31T23:08:48.373Z,15.20
2022-10-31T23:11:16.293Z,15.20
2022-10-31T23:14:03.139Z,15.20
2022-10-31T23:16:30.012Z,15.20
2022-10-31T23:18:56.961Z,15.20
2022-10-31T23:21:54.047Z,15.20
2022-10-31T23:24:26.372Z,15.20
2022-10-31T23:27:09.700Z,15.20
2022-10-31T23:29:40.898Z,15.20
2022-10-31T23:32:11.332Z,15.10
2022-10-31T23:34:38.502Z,15.10
2022-10-31T23:39:37.651Z,15.10
2022-10-31T23:42:04.977Z,15.10
2022-10-31T23:44:31.738Z,15.10
2022-10-31T23:46:58.542Z,15.20
2022-10-31T23:49:25.426Z,15.10
2022-10-31T23:51:52.371Z,15.10
2022-10-31T23:54:19.246Z,15.10
2022-10-31T23:56:46.054Z,15.10
2022-10-31T23:59:12.948Z,15.20
